DATE METEO

IERI
Time Temp. Dewp. Hum. Bar.
00:02 12 8.5 79 1020.4
00:12 12 8.7 80 1020.4
00:21 12 8.7 80 1020.4
00:33 11.9 8.2 78 1020.3
00:42 12 8.5 79 1020.4
00:53 12 8.5 79 1020.4
01:03 12 8.1 77 1020.4
01:13 12 8.5 79 1020.4
01:23 11.9 8.2 78 1020.2
01:34 11.9 8.2 78 1020.2
01:43 11.9 8.2 78 1020.2
01:53 11.9 8.2 78 1020.1
02:03 11.8 8.1 78 1020.1
02:14 11.9 8.6 80 1020.1
02:24 11.8 8.5 80 1020.1
02:33 11.7 8.4 80 1020
02:44 11.7 8.6 81 1020.1
02:54 11.7 8.7 82 1020.1
03:04 11.7 8.6 81 1020.1
03:14 11.6 8.3 80 1020.1
03:25 11.6 8.3 80 1020
03:34 11.6 8.1 79 1020
03:44 11.6 8.5 81 1020.1
03:55 11.6 8.3 80 1020
04:05 11.5 8.4 81 1019.9
04:15 11.5 8.4 81 1019.8
04:25 11.5 8.4 81 1019.9
04:35 11.5 8.7 83 1019.8
04:45 11.5 8.5 82 1019.8
04:55 11.5 8.5 82 1019.8
05:05 11.5 8.7 83 1019.8
05:16 11.4 8.6 83 1019.7
05:25 11.5 8.9 84 1019.7
05:35 11.5 8.7 83 1019.8
05:46 11.4 8.6 83 1019.8
05:56 11.4 8.6 83 1019.9
06:06 11.5 7.8 78 1019.8
06:16 11.5 7.8 78 1019.9
06:26 11.6 7.7 77 1020
06:36 11.7 7.8 77 1020
06:46 11.6 7.5 76 1020.1
06:57 11.6 7.1 74 1020.1
07:07 11.7 7.4 75 1020.2
07:17 11.7 7 73 1020.3
07:26 11.7 7.4 75 1020.3
07:37 11.7 7.4 75 1020.4
07:47 11.7 7.2 74 1020.5
07:57 11.7 7.4 75 1020.6
08:07 11.7 7 73 1020.6
08:18 11.7 7 73 1020.6
08:27 11.7 7.6 76 1020.6
08:37 11.8 7.3 74 1020.8
08:48 11.8 7.3 74 1020.8
08:58 11.8 7.5 75 1021
09:08 11.8 7.5 75 1021.1
09:18 11.9 7.6 75 1021.1
09:28 11.9 7.8 76 1021.2
09:38 11.9 7.2 73 1021.3
09:48 11.9 7 72 1021.4
09:59 11.9 7.4 74 1021.5
10:09 12 6.9 71 1021.5
10:18 12 7.3 73 1021.6
10:28 12 7.1 72 1021.7
10:39 12 7.1 72 1021.8
10:49 12 7.3 73 1021.8
10:59 12 7.3 73 1022
11:09 12 7.5 74 1021.9
11:19 12 7.3 73 1022
11:29 12 6.9 71 1022
11:39 12 6.9 71 1022.1
11:50 12 7.3 73 1022.2
12:00 12.1 7.2 72 1022.2
12:09 12.1 7.2 72 1022.3
12:20 12.1 7.2 72 1022.3
12:30 12.2 7.3 72 1022.3
12:40 12.2 7.3 72 1022.3
12:50 12.2 6.9 70 1022.5
13:01 12.2 7.1 71 1022.5
13:10 12.3 7.4 72 1022.6
13:20 12.3 7.4 72 1022.5
13:30 12.4 7.1 70 1022.7
13:41 12.4 6.9 69 1022.6
13:51 12.4 7.1 70 1022.7
14:01 12.3 6.8 69 1022.8
14:11 12.3 7 70 1022.7
14:21 12.2 6.9 70 1022.8
14:31 12.1 6.6 69 1022.7
14:41 12.2 6.9 70 1022.7
14:52 12.1 7 71 1022.8
15:02 12.1 7.2 72 1022.7
15:11 12.1 6.8 70 1022.7
15:22 12.1 6.2 67 1022.9
15:32 12.1 6.2 67 1022.9
15:42 12.1 6.4 68 1023
15:52 12 6.5 69 1023.1
16:02 11.9 6.4 69 1023.1
16:12 11.9 6 67 1023.2
16:22 11.8 5.7 66 1023.2
16:32 11.7 6.2 69 1023.2
16:43 11.7 6 68 1023.1
16:53 11.7 5.8 67 1023.3
17:02 11.7 6 68 1023.3
17:13 11.7 6.2 69 1023.4
17:23 11.7 6.2 69 1023.4
17:33 11.6 5.9 68 1023.4
17:43 11.6 6.3 70 1023.4
17:53 11.6 6.3 70 1023.4
18:03 11.6 6.5 71 1023.5
18:13 11.6 6.7 72 1023.5
18:24 11.6 7.3 75 1023.5
18:25 11.6 7.5 76 1023.6
18:36 11.6 7.5 76 1023.7
18:46 11.6 7.5 76 1023.7
18:55 11.6 7.5 76 1023.7
19:05 11.6 7.5 76 1023.8
19:16 11.6 7.9 78 1023.8
19:26 11.6 7.3 75 1023.9
19:36 11.7 7.8 77 1024
19:46 11.6 7.5 76 1024
19:56 11.6 7.5 76 1024.1
20:06 11.6 7.5 76 1024.2
20:16 11.5 7.4 76 1024.2
20:27 11.5 7.6 77 1024.2
20:37 11.6 7.7 77 1024.2
20:46 11.6 7.3 75 1024.3
20:57 11.6 7.7 77 1024.3
21:07 11.6 7.7 77 1024.4
21:17 11.6 7.5 76 1024.4
21:27 11.6 7.1 74 1024.4
21:38 11.6 7.1 74 1024.4
21:47 11.7 7.4 75 1024.6
21:57 11.7 7.2 74 1024.7
22:07 11.7 7.2 74 1024.8
22:18 11.7 7 73 1025
22:28 11.7 7 73 1025.1
22:37 11.7 6.8 72 1025.1
22:48 11.7 7 73 1025.2
22:58 11.7 6.4 70 1025.3
23:08 11.7 6.8 72 1025.3
23:18 11.7 6.8 72 1025.3
23:29 11.7 6.6 71 1025.3
23:38 11.7 6.8 72 1025.5
23:48 11.7 7 73 1025.5

STATISTICILE ZILEI

2021-09-17
TEMPERATURA
MEDIA
11.8
MAXIM
12.4
13:30
MINIM
11.4
05:16
PRESIUNEA
MEDIA
1022.1
MAXIM
1025.5
23:38
MINIM
1019.7
05:16
PUNCTUL DE ROUĂ
MEDIA
7.4
MAXIM
8.9
05:25
MINIM
5.7
16:22
UMIDITATEA
MEDIA
75
MAXIM
84
05:25
MINIM
66
16:22
TEMPERATURA (°C)
MINIM
11.4
MAXIM
12.4
MEDIA
11.8
PRESIUNEA (hpa)
MINIM
1019.7
MAXIM
1025.5
MEDIA
1022.1
STATIA METEO